Weather observations for the past three days for
Needles, Needles Airport
Imperial (Metric)
Date Time (pdt) Wind (mph) Vis. (mi.) Weather Sky Cond. Temperature (ºF) Relative Humidity Wind Chill (°F) Heat Index (°F) Pressure Precipitation (in)
Air Dwpt 6 hour altimeter (in) sea level (mb) 1 hr 3 hr 6 hr
Max. Min.
02 12:56 Calm 10.00 Fair CLR 89.1 16 7% 85 29.88 1008.9
02 11:56 NE 7 10.00 Fair CLR 89.1 19.9 8% 85 29.91 1010.0
02 10:56 Vrbl 6 10.00 Fair CLR 87.1 19.9 87.1 69.1 8% 84 29.94 1010.8
02 09:56 N 10 10.00 Fair CLR 84.9 21.9 10% 82 29.94 1010.9
02 08:56 N 9 10.00 Fair CLR 81 18 9% 79 29.95 1011.1
02 07:56 N 13 10.00 Fair CLR 78.1 17.1 10% 77 29.94 1010.8
02 06:56 NW 3 10.00 Fair CLR 73.9 15.1 10% 29.92 1010.5
02 05:56 Calm 10.00 Fair CLR 70 14 11% 29.9 1009.8
02 04:56 Vrbl 5 10.00 Fair CLR 72 14 78.1 68 11% 29.88 1009.0
02 03:56 NW 5 10.00 Fair CLR 71.1 15.1 12% 29.88 1008.9
02 02:56 NW 10 10.00 Fair CLR 71.1 15.1 12% 29.88 1008.8
02 01:56 NW 3 10.00 Fair CLR 69.1 14 12% 29.88 1008.9
02 00:56 N 6 10.00 Fair CLR 75.9 15.1 10% 75 29.88 1008.9
01 23:56 NW 9 10.00 Fair CLR 75.9 16 10% 75 29.87 1008.7
01 22:56 NW 8 10.00 Fair CLR 77 17.1 91.9 77 10% 76 29.86 1008.4
01 21:56 NW 8 10.00 Fair CLR 80.1 18 10% 78 29.86 1008.1
01 20:56 NW 8 10.00 Fair CLR 82 19.9 10% 80 29.84 1007.5
01 19:56 N 10 10.00 Fair CLR 84.9 21.9 10% 82 29.81 1006.4
01 18:56 N 15 10.00 Fair CLR 88 24.1 10% 84 29.79 1006.0
01 17:56 N 16 10.00 Fair CLR 90 21.9 8% 86 29.78 1005.6
01 16:56 N 12 G 22 10.00 Fair CLR 91.9 21.9 93 87.1 8% 88 29.79 1005.8
01 15:56 N 16 G 28 10.00 Fair CLR 93 21.9 7% 88 29.79 1005.9
01 14:56 N 18 G 28 10.00 Fair CLR 91.9 23 8% 88 29.82 1006.6
01 13:56 NE 9 G 28 10.00 Fair CLR 91.9 23 8% 88 29.84 1007.3
01 12:56 N 12 G 20 10.00 Fair CLR 90 21.9 8% 86 29.85 1007.8
01 11:56 N 15 G 25 10.00 Fair CLR 89.1 21 8% 85 29.87 1008.3
01 10:56 N 16 G 25 10.00 Fair CLR 87.1 23 87.1 69.1 9% 84 29.88 1009.0
01 09:56 N 18 G 29 10.00 Fair CLR 84.9 23 10% 82 29.89 1009.2
01 08:56 N 15 10.00 Fair CLR 81 27 14% 79 29.88 1009.2
01 07:56 N 14 10.00 Fair CLR 78.1 26.1 15% 77 29.87 1008.7
01 06:56 NW 7 10.00 Fair CLR 73.9 23 15% 29.85 1008.2
01 05:56 W 5 10.00 Fair CLR 70 21.9 16% 29.83 1007.2
01 04:56 W 5 10.00 Fair CLR 70 21 78.1 70 16% 29.81 1006.7
01 03:56 NW 7 10.00 Fair CLR 72 21 15% 29.79 1005.9
01 02:56 W 7 10.00 Fair CLR 73 19.9 13% 29.77 1005.1
01 01:56 NW 9 10.00 Fair CLR 73 21 14% 29.76 1004.9
01 00:56 W 10 10.00 Fair CLR 73.9 21 14% 29.76 1005.0
30 23:56 W 9 10.00 Fair CLR 75.9 21 13% 76 29.76 1004.7
30 22:56 W 9 10.00 Fair CLR 77 21.9 91.9 77 13% 76 29.74 1004.3
30 21:56 NW 8 10.00 Fair CLR 79 21.9 12% 77 29.74 1004.3
30 20:56 N 9 10.00 Fair CLR 81 25 13% 79 29.73 1003.9
30 19:56 N 10 10.00 Fair CLR 82.9 26.1 12% 80 29.71 1003.4
30 18:56 N 15 10.00 Fair CLR 87.1 23 9% 84 29.7 1002.9
30 17:56 N 21 G 29 10.00 Fair and Breezy CLR 90 21.9 8% 86 29.69 1002.8
30 16:56 N 20 G 26 10.00 Fair CLR 91.9 21 93 84.9 7% 88 29.69 1002.7
30 15:56 NW 13 G 30 10.00 Fair CLR 91.9 21 7% 88 29.7 1002.8
30 14:56 NW 12 G 20 10.00 Fair CLR 91 21.9 8% 87 29.73 1003.8
30 13:56 N 3 G 17 10.00 Fair CLR 90 21.9 8% 86 29.75 1004.5
30 12:56 N 10 G 17 10.00 Fair CLR 89.1 21.9 8% 85 29.77 1005.1
30 11:56 N 10 10.00 Fair CLR 88 23 9% 84 29.8 1005.9
30 10:56 N 14 G 20 10.00 Fair CLR 86 27 86 63 12% 83 29.83 1007.0
30 09:56 N 14 10.00 Fair CLR 81 28 14% 79 29.84 1007.8
30 08:56 N 12 10.00 Fair CLR 77 25 14% 76 29.85 1008.0
30 07:56 Calm 10.00 Fair CLR 72 18 13% 29.85 1008.1
30 06:56 S 6 10.00 Fair CLR 68 18 15% 29.84 1008.0
30 05:56 N 3 10.00 Fair CLR 64 17.1 16% 29.82 1007.5
30 04:56 W 3 10.00 Fair CLR 64.9 17.1 78.1 64.9 16% 29.81 1006.9
30 03:56 Calm 10.00 Fair CLR 68 17.1 14% 29.82 1007.0
30 02:56 NW 3 10.00 Fair CLR 66 17.1 15% 29.82 1007.3
30 01:56 S 7 10.00 Fair CLR 70 18 14% 29.84 1007.7
30 00:56 SW 8 10.00 Fair CLR 73 18 12% 29.84 1007.8
29 23:56 W 7 10.00 Fair CLR 77 19 11% 76 29.85 1007.8
29 22:56 W 8 10.00 Fair CLR 78.1 18 89.1 77 10% 77 29.84 1007.8
29 21:56 SW 9 10.00 Fair CLR 80.1 21 11% 78 29.85 1008.1
29 20:56 SW 7 10.00 Fair CLR 79 21 11% 77 29.83 1007.6
29 19:56 SE 3 10.00 Fair CLR 82 21 10% 80 29.81 1007.1
29 18:56 E 8 10.00 Fair CLR 86 21 9% 83 29.8 1006.5
29 17:56 NE 7 10.00 Fair CLR 87.1 21.9 9% 84 29.81 1006.8
29 16:56 E 9 10.00 Fair CLR 89.1 21 90 79 8% 85 29.82 1007.0
29 15:56 N 9 10.00 Fair CLR 89.1 21 8% 85 29.83 1007.7
29 14:56 Calm 10.00 Fair CLR 87.1 21 9% 84 29.86 1008.7
29 13:56 E 10 10.00 Fair CLR 87.1 21.9 9% 84 29.89 1009.7
Date Time (pdt) Wind (mph) Vis. (mi.) Weather Sky Cond. Air Dwpt Max. Min. Relative Humidity Wind Chill (°F) Heat Index (°F) altimeter (in) sea level (mb) 1 hr 3 hr 6 hr
6 hour
Temperature (ºF) Pressure Precipitation (in)